createdAt,value
2022-09-12T00:00:28.707Z,1004.23
2022-09-12T00:01:01.156Z,1004.13
2022-09-12T00:01:33.630Z,1004.13
2022-09-12T00:02:21.275Z,1004.33
2022-09-12T00:02:53.543Z,1004.23
2022-09-12T00:03:24.611Z,1004.23
2022-09-12T00:03:42.330Z,1004.23
2022-09-12T00:04:12.430Z,1004.23
2022-09-12T00:04:35.856Z,1004.23
2022-09-12T00:05:01.131Z,1004.23
2022-09-12T00:05:33.340Z,1004.23
2022-09-12T00:06:05.110Z,1004.33
2022-09-12T00:06:35.399Z,1004.54
2022-09-12T00:07:09.797Z,1004.54
2022-09-12T00:07:34.465Z,1004.23
2022-09-12T00:07:57.524Z,1004.23
2022-09-12T00:08:28.411Z,1004.23
2022-09-12T00:09:00.475Z,1004.23
2022-09-12T00:09:33.935Z,1004.23
2022-09-12T00:10:04.725Z,1004.23
2022-09-12T00:10:35.331Z,1004.23
2022-09-12T00:10:53.679Z,1004.23
2022-09-12T00:11:24.429Z,1004.23
2022-09-12T00:11:41.679Z,1004.13
2022-09-12T00:12:12.520Z,1004.13
2022-09-12T00:12:34.724Z,1004.13
2022-09-12T00:13:01.175Z,1004.13
2022-09-12T00:13:32.511Z,1004.13
2022-09-12T00:14:04.488Z,1004.03
2022-09-12T00:14:35.335Z,1004.23
2022-09-12T00:14:52.951Z,1004.23
2022-09-12T00:15:25.506Z,1004.23
2022-09-12T00:15:43.748Z,1004.33
2022-09-12T00:16:12.558Z,1004.33
2022-09-12T00:16:35.382Z,1004.23
2022-09-12T00:17:00.399Z,1004.23
2022-09-12T00:17:34.286Z,1004.23
2022-09-12T00:18:04.475Z,1004.13
2022-09-12T00:18:35.327Z,1004.23
2022-09-12T00:18:53.104Z,1004.23
2022-09-12T00:19:25.313Z,1004.23
2022-09-12T00:19:42.432Z,1004.23
2022-09-12T00:20:13.548Z,1004.23
2022-09-12T00:20:34.422Z,1004.23
2022-09-12T00:21:01.527Z,1004.23
2022-09-12T00:21:33.242Z,1004.23
2022-09-12T00:22:04.473Z,1004.03
2022-09-12T00:22:34.522Z,1003.93
2022-09-12T00:22:53.250Z,1003.93
2022-09-12T00:23:24.573Z,1003.93
2022-09-12T00:23:42.062Z,1004.13
2022-09-12T00:24:15.238Z,1004.13
2022-09-12T00:24:35.488Z,1004.23
2022-09-12T00:25:00.661Z,1004.23
2022-09-12T00:25:32.529Z,1004.23
2022-09-12T00:26:04.435Z,1003.93
2022-09-12T00:26:37.523Z,1004.13
2022-09-12T00:27:08.520Z,1004.13
2022-09-12T00:27:35.965Z,1003.93
2022-09-12T00:27:56.432Z,1003.93
2022-09-12T00:28:29.121Z,1003.93
2022-09-12T00:29:00.447Z,1004.03
2022-09-12T00:29:33.038Z,1004.03
2022-09-12T00:30:04.724Z,1004.13
2022-09-12T00:30:40.281Z,1004.03
2022-09-12T00:31:08.791Z,1004.03
2022-09-12T00:31:34.548Z,1004.13
2022-09-12T00:31:57.246Z,1004.13
2022-09-12T00:32:28.511Z,1004.13
2022-09-12T00:33:01.677Z,1004.03
2022-09-12T00:33:32.520Z,1004.03
2022-09-12T00:34:04.527Z,1004.13
2022-09-12T00:34:35.920Z,1004.13
2022-09-12T00:34:52.418Z,1004.13
2022-09-12T00:35:25.362Z,1004.13
2022-09-12T00:35:42.530Z,1004.13
2022-09-12T00:36:12.567Z,1004.13
2022-09-12T00:36:35.322Z,1004.13
2022-09-12T00:37:00.429Z,1004.13
2022-09-12T00:37:32.423Z,1004.13
2022-09-12T00:38:04.529Z,1003.93
2022-09-12T00:38:34.555Z,1004.23
2022-09-12T00:38:52.507Z,1004.23
2022-09-12T00:39:25.171Z,1004.23
2022-09-12T00:39:42.380Z,1004.03
2022-09-12T00:40:12.628Z,1004.03
2022-09-12T00:40:34.469Z,1004.03
2022-09-12T00:41:01.958Z,1004.03
2022-09-12T00:41:32.479Z,1004.03
2022-09-12T00:42:04.438Z,1004.03
2022-09-12T00:42:36.397Z,1003.83
2022-09-12T00:43:08.568Z,1003.83
2022-09-12T00:43:34.542Z,1004.13
2022-09-12T00:43:56.419Z,1004.13
2022-09-12T00:44:29.217Z,1004.13
2022-09-12T00:45:00.639Z,1004.13
2022-09-12T00:45:33.460Z,1004.13
2022-09-12T00:46:04.427Z,1004.13
2022-09-12T00:46:34.486Z,1003.93
2022-09-12T00:47:09.124Z,1003.93
2022-09-12T00:47:35.496Z,1003.93
2022-09-12T00:47:56.439Z,1003.93
2022-09-12T00:48:28.486Z,1003.93
2022-09-12T00:49:00.428Z,1003.83
2022-09-12T00:49:33.651Z,1003.83
2022-09-12T00:50:04.532Z,1004.03
2022-09-12T00:50:36.442Z,1004.13
2022-09-12T00:51:09.406Z,1004.13
2022-09-12T00:51:36.603Z,1003.83
2022-09-12T00:51:56.517Z,1003.83
2022-09-12T00:52:28.460Z,1003.83
2022-09-12T00:53:00.410Z,1004.03
2022-09-12T00:53:33.618Z,1004.03
2022-09-12T00:54:04.553Z,1003.83
2022-09-12T00:54:34.528Z,1003.93
2022-09-12T00:54:53.473Z,1003.93
2022-09-12T00:55:24.638Z,1003.93
2022-09-12T00:55:56.449Z,1004.13
2022-09-12T00:56:28.536Z,1004.13
2022-09-12T00:57:01.414Z,1004.03
2022-09-12T00:57:33.330Z,1004.03
2022-09-12T00:58:04.486Z,1004.03
2022-09-12T00:58:34.698Z,1004.03
2022-09-12T00:58:52.411Z,1004.03
2022-09-12T00:59:25.144Z,1004.03
2022-09-12T00:59:42.225Z,1003.83
2022-09-12T01:00:12.613Z,1003.83
2022-09-12T01:00:34.544Z,1003.83
2022-09-12T01:01:00.460Z,1003.83
2022-09-12T01:01:33.220Z,1003.83
2022-09-12T01:02:04.508Z,1003.83
2022-09-12T01:02:35.122Z,1004.03
2022-09-12T01:02:53.198Z,1004.03
2022-09-12T01:03:24.559Z,1004.03
2022-09-12T01:03:56.494Z,1003.93
2022-09-12T01:04:28.446Z,1003.93
2022-09-12T01:05:00.755Z,1003.83
2022-09-12T01:05:32.439Z,1003.83
2022-09-12T01:06:04.536Z,1003.83
2022-09-12T01:06:35.240Z,1003.83
2022-09-12T01:06:52.682Z,1003.83
2022-09-12T01:07:25.495Z,1003.83
2022-09-12T01:07:56.533Z,1004.03
2022-09-12T01:08:28.511Z,1004.03
2022-09-12T01:09:00.395Z,1003.72
2022-09-12T01:09:32.418Z,1003.72
2022-09-12T01:10:04.619Z,1003.83
2022-09-12T01:10:34.988Z,1003.93
2022-09-12T01:10:53.383Z,1003.93
2022-09-12T01:11:25.339Z,1003.93
2022-09-12T01:11:42.402Z,1003.93
2022-09-12T01:12:12.987Z,1003.93
2022-09-12T01:12:35.573Z,1003.93
2022-09-12T01:13:02.231Z,1003.93
2022-09-12T01:13:33.142Z,1003.93
2022-09-12T01:14:04.443Z,1003.83
2022-09-12T01:14:34.952Z,1003.83
2022-09-12T01:14:53.126Z,1003.83
2022-09-12T01:15:25.588Z,1003.83
2022-09-12T01:15:43.017Z,1003.62
2022-09-12T01:16:13.221Z,1003.62
2022-09-12T01:16:34.575Z,1003.93
2022-09-12T01:17:00.908Z,1003.93
2022-09-12T01:17:33.019Z,1003.93
2022-09-12T01:18:04.453Z,1003.83
2022-09-12T01:18:34.519Z,1003.62
2022-09-12T01:19:10.198Z,1003.62
2022-09-12T01:19:34.489Z,1003.72
2022-09-12T01:19:56.444Z,1003.72
2022-09-12T01:20:28.557Z,1003.72
2022-09-12T01:21:00.454Z,1003.83
2022-09-12T01:21:32.535Z,1003.83
2022-09-12T01:22:05.052Z,1003.72
2022-09-12T01:22:34.422Z,1003.83
2022-09-12T01:22:52.396Z,1003.83
2022-09-12T01:23:25.142Z,1003.83
2022-09-12T01:23:42.328Z,1003.62
2022-09-12T01:24:12.405Z,1003.62
2022-09-12T01:24:34.512Z,1003.83
2022-09-12T01:25:01.318Z,1003.83
2022-09-12T01:25:32.521Z,1003.83
2022-09-12T01:26:05.970Z,1003.83
2022-09-12T01:26:35.256Z,1003.83
2022-09-12T01:26:52.534Z,1003.83
2022-09-12T01:27:25.218Z,1003.83
2022-09-12T01:27:42.339Z,1003.62
2022-09-12T01:28:12.547Z,1003.62
2022-09-12T01:28:35.429Z,1003.83
2022-09-12T01:29:00.434Z,1003.83
2022-09-12T01:29:33.323Z,1003.83
2022-09-12T01:30:04.648Z,1003.62
2022-09-12T01:30:34.580Z,1003.62
2022-09-12T01:30:53.338Z,1003.62
2022-09-12T01:31:24.388Z,1003.62
2022-09-12T01:31:42.417Z,1003.83
2022-09-12T01:32:12.532Z,1003.83
2022-09-12T01:32:35.125Z,1003.52
2022-09-12T01:33:05.947Z,1003.52
2022-09-12T01:33:37.404Z,1003.52
2022-09-12T01:34:04.434Z,1003.62
2022-09-12T01:34:35.278Z,1003.62
2022-09-12T01:34:52.454Z,1003.62
2022-09-12T01:35:24.718Z,1003.62
2022-09-12T01:35:41.582Z,1003.72
2022-09-12T01:36:13.186Z,1003.72
2022-09-12T01:36:35.228Z,1003.72
2022-09-12T01:37:00.521Z,1003.72
2022-09-12T01:37:33.507Z,1003.72
2022-09-12T01:38:04.416Z,1003.72
2022-09-12T01:38:37.328Z,1003.72
2022-09-12T01:39:08.485Z,1003.72
2022-09-12T01:39:35.448Z,1003.62
2022-09-12T01:39:57.998Z,1003.62
2022-09-12T01:40:28.496Z,1003.62
2022-09-12T01:41:00.417Z,1003.72
2022-09-12T01:41:33.983Z,1003.72
2022-09-12T01:42:04.490Z,1003.52
2022-09-12T01:42:35.783Z,1003.72
2022-09-12T01:42:52.751Z,1003.72
2022-09-12T01:43:25.169Z,1003.72
2022-09-12T01:43:42.516Z,1003.72
2022-09-12T01:44:13.528Z,1003.72
2022-09-12T01:44:36.175Z,1003.42
2022-09-12T01:45:00.525Z,1003.42
2022-09-12T01:45:33.944Z,1003.42
2022-09-12T01:46:04.502Z,1003.72
2022-09-12T01:46:34.517Z,1003.62
2022-09-12T01:46:53.082Z,1003.62
2022-09-12T01:47:24.420Z,1003.62
2022-09-12T01:47:41.514Z,1003.52
2022-09-12T01:48:13.638Z,1003.52
2022-09-12T01:48:34.533Z,1003.52
2022-09-12T01:49:00.694Z,1003.52
2022-09-12T01:49:33.148Z,1003.52
2022-09-12T01:50:04.532Z,1003.72
2022-09-12T01:50:34.485Z,1003.62
2022-09-12T01:50:53.368Z,1003.62
2022-09-12T01:51:24.477Z,1003.62
2022-09-12T01:51:42.360Z,1003.62
2022-09-12T01:52:13.091Z,1003.62
2022-09-12T01:52:34.557Z,1003.42
2022-09-12T01:53:00.475Z,1003.42
2022-09-12T01:53:33.124Z,1003.42
2022-09-12T01:54:04.373Z,1003.72
2022-09-12T01:54:36.628Z,1003.52
2022-09-12T01:55:09.859Z,1003.52
2022-09-12T01:55:34.495Z,1003.52
2022-09-12T01:55:57.346Z,1003.52
2022-09-12T01:56:28.380Z,1003.52
2022-09-12T01:57:00.515Z,1003.72
2022-09-12T01:57:32.422Z,1003.72
2022-09-12T01:58:04.390Z,1003.62
2022-09-12T01:58:35.262Z,1003.62
2022-09-12T01:58:52.580Z,1003.62
2022-09-12T01:59:24.507Z,1003.62
2022-09-12T01:59:41.994Z,1003.52
2022-09-12T02:00:14.232Z,1003.52
2022-09-12T02:00:35.787Z,1003.32
2022-09-12T02:01:00.453Z,1003.32
2022-09-12T02:01:32.472Z,1003.32
2022-09-12T02:02:04.579Z,1003.72
2022-09-12T02:02:35.128Z,1003.52
2022-09-12T02:02:53.210Z,1003.52
2022-09-12T02:03:24.519Z,1003.52
2022-09-12T02:03:42.481Z,1003.42
2022-09-12T02:04:13.310Z,1003.42
2022-09-12T02:04:34.557Z,1003.42
2022-09-12T02:05:00.472Z,1003.42
2022-09-12T02:05:35.446Z,1003.42
2022-09-12T02:06:04.550Z,1003.42
2022-09-12T02:06:37.225Z,1003.72
2022-09-12T02:07:08.380Z,1003.72
2022-09-12T02:07:34.574Z,1003.32
2022-09-12T02:07:57.133Z,1003.32
2022-09-12T02:08:28.499Z,1003.32
2022-09-12T02:09:00.360Z,1003.32
2022-09-12T02:09:32.424Z,1003.32
2022-09-12T02:10:04.599Z,1003.32
2022-09-12T02:10:34.547Z,1003.42
2022-09-12T02:10:52.479Z,1003.42
2022-09-12T02:11:25.160Z,1003.42
2022-09-12T02:11:42.312Z,1003.42
2022-09-12T02:12:12.491Z,1003.42
2022-09-12T02:12:34.461Z,1003.42
2022-09-12T02:13:01.094Z,1003.42
2022-09-12T02:13:32.373Z,1003.42
2022-09-12T02:14:05.095Z,1003.22
2022-09-12T02:14:34.443Z,1003.32
2022-09-12T02:14:52.545Z,1003.32
2022-09-12T02:15:26.394Z,1003.32
2022-09-12T02:15:56.479Z,1003.22
2022-09-12T02:16:29.230Z,1003.22
2022-09-12T02:17:00.499Z,1003.32
2022-09-12T02:17:33.016Z,1003.32
2022-09-12T02:18:04.431Z,1003.22
2022-09-12T02:18:34.891Z,1003.22
2022-09-12T02:18:53.275Z,1003.22
2022-09-12T02:19:25.490Z,1003.22
2022-09-12T02:19:56.392Z,1003.22
2022-09-12T02:20:46.855Z,1003.22
2022-09-12T02:21:00.452Z,1003.42
2022-09-12T02:21:32.518Z,1003.42
2022-09-12T02:22:04.736Z,1003.32
2022-09-12T02:22:34.430Z,1003.11
2022-09-12T02:22:54.342Z,1003.11
2022-09-12T02:23:25.225Z,1003.11
2022-09-12T02:23:42.803Z,1003.32
2022-09-12T02:24:12.383Z,1003.32
2022-09-12T02:24:34.761Z,1003.32
2022-09-12T02:25:02.542Z,1003.32
2022-09-12T02:25:32.508Z,1003.32
2022-09-12T02:26:06.390Z,1003.32
2022-09-12T02:26:37.125Z,1003.32
2022-09-12T02:27:08.422Z,1003.32
2022-09-12T02:27:35.521Z,1003.22
2022-09-12T02:27:56.508Z,1003.22
2022-09-12T02:28:29.467Z,1003.22
2022-09-12T02:29:17.158Z,1003.32
2022-09-12T02:29:35.708Z,1003.42
2022-09-12T02:30:04.651Z,1003.42
2022-09-12T02:30:34.783Z,1003.32
2022-09-12T02:30:52.557Z,1003.32
2022-09-12T02:31:25.219Z,1003.32
2022-09-12T02:31:42.357Z,1003.32
2022-09-12T02:32:13.492Z,1003.32
2022-09-12T02:32:35.267Z,1003.32
2022-09-12T02:33:02.116Z,1003.32
2022-09-12T02:33:32.419Z,1003.32
2022-09-12T02:34:04.493Z,1003.22
2022-09-12T02:34:36.284Z,1003.22
2022-09-12T02:35:08.620Z,1003.22
2022-09-12T02:35:34.492Z,1003.32
2022-09-12T02:35:57.639Z,1003.32
2022-09-12T02:36:30.508Z,1003.32
2022-09-12T02:37:00.436Z,1003.11
2022-09-12T02:37:33.372Z,1003.11
2022-09-12T02:38:05.691Z,1003.22
2022-09-12T02:38:34.543Z,1003.01
2022-09-12T02:38:52.385Z,1003.01
2022-09-12T02:39:25.238Z,1003.01
2022-09-12T02:39:45.170Z,1003.42
2022-09-12T02:40:12.670Z,1003.42
2022-09-12T02:40:34.443Z,1003.22
2022-09-12T02:41:00.591Z,1003.22
2022-09-12T02:41:32.419Z,1003.22
2022-09-12T02:42:04.482Z,1003.22
2022-09-12T02:42:35.165Z,1003.01
2022-09-12T02:42:52.388Z,1003.01
2022-09-12T02:43:25.174Z,1003.01
2022-09-12T02:43:42.310Z,1003.32
2022-09-12T02:44:12.476Z,1003.32
2022-09-12T02:44:34.577Z,1003.01
2022-09-12T02:45:01.242Z,1003.01
2022-09-12T02:45:32.419Z,1003.01
2022-09-12T02:46:05.241Z,1003.22
2022-09-12T02:46:36.469Z,1003.11
2022-09-12T02:47:09.858Z,1003.11
2022-09-12T02:47:34.520Z,1002.91
2022-09-12T02:47:56.442Z,1002.91
2022-09-12T02:48:28.793Z,1002.91
2022-09-12T02:49:00.502Z,1003.32
2022-09-12T02:49:32.448Z,1003.32
2022-09-12T02:50:04.633Z,1003.42
2022-09-12T02:50:35.349Z,1003.01
2022-09-12T02:50:54.064Z,1003.01
2022-09-12T02:51:25.074Z,1003.01
2022-09-12T02:51:43.759Z,1003.22
2022-09-12T02:52:12.507Z,1003.22
2022-09-12T02:52:35.768Z,1003.01
2022-09-12T02:53:01.363Z,1003.01
2022-09-12T02:53:32.581Z,1003.01
2022-09-12T02:54:04.725Z,1003.01
2022-09-12T02:54:34.446Z,1003.11
2022-09-12T02:55:08.557Z,1003.11
2022-09-12T02:55:34.563Z,1003.01
2022-09-12T02:55:56.617Z,1003.01
2022-09-12T02:56:29.100Z,1003.01
2022-09-12T02:57:00.373Z,1003.22
2022-09-12T02:57:32.522Z,1003.22
2022-09-12T02:58:04.506Z,1003.11
2022-09-12T02:58:35.606Z,1003.11
2022-09-12T02:59:09.588Z,1003.11
2022-09-12T02:59:35.078Z,1003.22
2022-09-12T02:59:58.907Z,1003.22
2022-09-12T03:00:30.314Z,1003.22
2022-09-12T03:01:00.401Z,1003.11
2022-09-12T03:01:32.418Z,1003.11
2022-09-12T03:02:06.525Z,1003.11
2022-09-12T03:02:35.329Z,1003.11
2022-09-12T03:02:55.861Z,1003.11
2022-09-12T03:03:24.369Z,1003.11
2022-09-12T03:03:43.544Z,1003.11
2022-09-12T03:04:12.470Z,1003.11
2022-09-12T03:04:34.760Z,1003.22
2022-09-12T03:05:01.505Z,1003.22
2022-09-12T03:05:33.376Z,1003.22
2022-09-12T03:06:04.433Z,1003.11
2022-09-12T03:06:35.543Z,1002.91
2022-09-12T03:06:53.739Z,1002.91
2022-09-12T03:07:24.371Z,1002.91
2022-09-12T03:07:41.535Z,1003.22
2022-09-12T03:08:13.214Z,1003.22
2022-09-12T03:08:34.949Z,1003.11
2022-09-12T03:09:00.496Z,1003.11
2022-09-12T03:09:33.078Z,1003.11
2022-09-12T03:10:04.515Z,1003.22
2022-09-12T03:10:36.341Z,1003.01
2022-09-12T03:11:08.474Z,1003.01
2022-09-12T03:11:34.539Z,1002.91
2022-09-12T03:11:58.112Z,1002.91
2022-09-12T03:12:28.418Z,1002.91
2022-09-12T03:13:01.641Z,1003.11
2022-09-12T03:13:32.480Z,1003.11
2022-09-12T03:14:05.278Z,1003.01
2022-09-12T03:14:35.544Z,1003.01
2022-09-12T03:14:52.478Z,1003.01
2022-09-12T03:15:25.194Z,1003.01
2022-09-12T03:15:43.384Z,1003.11
2022-09-12T03:16:12.449Z,1003.11
2022-09-12T03:16:34.702Z,1003.01
2022-09-12T03:17:00.469Z,1003.01
2022-09-12T03:17:32.425Z,1003.01
2022-09-12T03:18:05.768Z,1003.01
2022-09-12T03:18:34.572Z,1003.01
2022-09-12T03:19:08.521Z,1003.01
2022-09-12T03:19:35.549Z,1003.11
2022-09-12T03:19:56.877Z,1003.11
2022-09-12T03:20:29.339Z,1003.11
2022-09-12T03:21:00.421Z,1002.91
2022-09-12T03:21:32.972Z,1002.91
2022-09-12T03:22:05.221Z,1002.91
2022-09-12T03:22:35.160Z,1003.11
2022-09-12T03:22:52.882Z,1003.11
2022-09-12T03:23:24.366Z,1003.11
2022-09-12T03:23:41.593Z,1003.22
2022-09-12T03:24:12.555Z,1003.22
2022-09-12T03:24:34.442Z,1003.11
2022-09-12T03:25:01.183Z,1003.11
2022-09-12T03:25:32.368Z,1003.11
2022-09-12T03:26:04.584Z,1003.01
2022-09-12T03:26:35.836Z,1003.11
2022-09-12T03:26:52.336Z,1003.11
2022-09-12T03:27:25.120Z,1003.11
2022-09-12T03:27:43.555Z,1003.11
2022-09-12T03:28:14.584Z,1003.11
2022-09-12T03:28:37.127Z,1003.11
2022-09-12T03:29:00.369Z,1003.11
2022-09-12T03:29:33.113Z,1003.11
2022-09-12T03:30:06.618Z,1002.91
2022-09-12T03:30:34.608Z,1002.91
2022-09-12T03:30:53.488Z,1002.91
2022-09-12T03:31:24.356Z,1002.91
2022-09-12T03:31:41.481Z,1003.01
2022-09-12T03:32:12.816Z,1003.01
2022-09-12T03:32:34.756Z,1003.22
2022-09-12T03:33:01.289Z,1003.22
2022-09-12T03:33:32.362Z,1003.22
2022-09-12T03:34:04.410Z,1002.91
2022-09-12T03:34:34.438Z,1003.11
2022-09-12T03:34:52.556Z,1003.11
2022-09-12T03:35:25.424Z,1003.11
2022-09-12T03:35:42.895Z,1003.01
2022-09-12T03:36:12.405Z,1003.01
2022-09-12T03:36:34.529Z,1003.01
2022-09-12T03:37:01.789Z,1003.01
2022-09-12T03:37:32.536Z,1003.01
2022-09-12T03:38:04.848Z,1003.22
2022-09-12T03:38:35.708Z,1003.01
2022-09-12T03:39:07.845Z,1003.01
2022-09-12T03:39:25.087Z,1003.01
2022-09-12T03:39:57.327Z,1003.11
2022-09-12T03:40:29.312Z,1003.11
2022-09-12T03:41:00.386Z,1003.11
2022-09-12T03:41:33.056Z,1003.11
2022-09-12T03:42:04.397Z,1002.91
2022-09-12T03:42:34.448Z,1003.22
2022-09-12T03:43:09.215Z,1003.22
2022-09-12T03:43:36.122Z,1003.11
2022-09-12T03:43:57.861Z,1003.11
2022-09-12T03:44:29.176Z,1003.11
2022-09-12T03:45:00.470Z,1003.11
2022-09-12T03:45:32.559Z,1003.11
2022-09-12T03:46:04.524Z,1003.01
2022-09-12T03:46:34.563Z,1002.81
2022-09-12T03:46:52.356Z,1002.81
2022-09-12T03:47:26.515Z,1002.81
2022-09-12T03:47:56.682Z,1003.22
2022-09-12T03:48:28.361Z,1003.22
2022-09-12T03:49:00.373Z,1003.01
2022-09-12T03:49:32.368Z,1003.01
2022-09-12T03:50:04.596Z,1003.11
2022-09-12T03:50:34.586Z,1002.91
2022-09-12T03:50:54.136Z,1002.91
2022-09-12T03:51:24.380Z,1002.91
2022-09-12T03:51:42.324Z,1003.11
2022-09-12T03:52:13.055Z,1003.11
2022-09-12T03:52:34.446Z,1003.11
2022-09-12T03:53:00.487Z,1003.11
2022-09-12T03:53:32.362Z,1003.11
2022-09-12T03:54:04.411Z,1003.01
2022-09-12T03:54:34.790Z,1003.11
2022-09-12T03:54:52.454Z,1003.11
2022-09-12T03:55:25.176Z,1003.11
2022-09-12T03:55:42.281Z,1003.11
2022-09-12T03:56:13.399Z,1003.11
2022-09-12T03:56:34.461Z,1003.11
2022-09-12T03:57:00.466Z,1003.11
2022-09-12T03:57:33.089Z,1003.11
2022-09-12T03:58:04.402Z,1003.01
2022-09-12T03:58:35.230Z,1002.91
2022-09-12T03:58:52.841Z,1002.91
2022-09-12T03:59:24.497Z,1002.91
2022-09-12T03:59:41.590Z,1003.01
2022-09-12T04:00:15.379Z,1003.01
2022-09-12T04:00:34.548Z,1003.11
2022-09-12T04:01:01.078Z,1003.11
2022-09-12T04:01:32.589Z,1003.11
2022-09-12T04:02:04.381Z,1003.11
2022-09-12T04:02:35.692Z,1003.01
2022-09-12T04:02:53.170Z,1003.01
2022-09-12T04:03:25.062Z,1003.01
2022-09-12T04:03:42.207Z,1003.01
2022-09-12T04:04:12.385Z,1003.01
2022-09-12T04:04:34.461Z,1003.01
2022-09-12T04:05:01.309Z,1003.01
2022-09-12T04:05:32.438Z,1003.01
2022-09-12T04:06:05.066Z,1002.91
2022-09-12T04:06:34.477Z,1002.91
2022-09-12T04:06:53.244Z,1002.91
2022-09-12T04:07:25.181Z,1002.91
2022-09-12T04:07:42.705Z,1002.81
2022-09-12T04:08:13.248Z,1002.81
2022-09-12T04:08:36.509Z,1003.01
2022-09-12T04:09:01.133Z,1003.01
2022-09-12T04:09:32.354Z,1003.01
2022-09-12T04:10:05.307Z,1003.11
2022-09-12T04:10:34.656Z,1002.81
2022-09-12T04:10:52.463Z,1002.81
2022-09-12T04:11:24.406Z,1002.81
2022-09-12T04:11:41.945Z,1003.11
2022-09-12T04:12:14.003Z,1003.11
2022-09-12T04:12:36.158Z,1002.81
2022-09-12T04:13:00.462Z,1002.81
2022-09-12T04:13:34.443Z,1002.81
2022-09-12T04:14:04.382Z,1002.81
2022-09-12T04:14:36.587Z,1003.11
2022-09-12T04:15:08.530Z,1003.11
2022-09-12T04:15:34.794Z,1002.81
2022-09-12T04:15:57.340Z,1002.81
2022-09-12T04:16:28.766Z,1002.81
2022-09-12T04:17:01.082Z,1002.71
2022-09-12T04:17:32.371Z,1002.71
2022-09-12T04:18:06.166Z,1003.01
2022-09-12T04:18:36.966Z,1002.91
2022-09-12T04:19:08.365Z,1002.91
2022-09-12T04:19:36.104Z,1002.91
2022-09-12T04:19:56.359Z,1002.91
2022-09-12T04:20:29.212Z,1002.91
2022-09-12T04:21:00.437Z,1002.81
2022-09-12T04:21:34.071Z,1002.81
2022-09-12T04:22:04.387Z,1002.71
2022-09-12T04:22:35.280Z,1002.71
2022-09-12T04:22:52.738Z,1002.71
2022-09-12T04:23:24.499Z,1002.71
2022-09-12T04:23:41.513Z,1002.91
2022-09-12T04:24:13.081Z,1002.91
2022-09-12T04:24:34.536Z,1002.91
2022-09-12T04:25:01.463Z,1002.91
2022-09-12T04:25:32.852Z,1002.91
2022-09-12T04:26:04.390Z,1002.81
2022-09-12T04:26:34.480Z,1002.81
2022-09-12T04:26:53.344Z,1002.81
2022-09-12T04:27:25.120Z,1002.81
2022-09-12T04:27:44.380Z,1002.81
2022-09-12T04:28:13.183Z,1002.81
2022-09-12T04:28:34.530Z,1002.81
2022-09-12T04:29:00.398Z,1002.81
2022-09-12T04:29:33.003Z,1002.81
2022-09-12T04:30:04.477Z,1002.71
2022-09-12T04:30:35.275Z,1002.81
2022-09-12T04:30:53.112Z,1002.81
2022-09-12T04:31:24.444Z,1002.81
2022-09-12T04:31:43.007Z,1002.91
2022-09-12T04:32:12.505Z,1002.91
2022-09-12T04:32:35.385Z,1002.71
2022-09-12T04:33:02.205Z,1002.71
2022-09-12T04:33:34.548Z,1002.71
2022-09-12T04:34:05.161Z,1002.71
2022-09-12T04:34:34.536Z,1002.81
2022-09-12T04:34:52.417Z,1002.81
2022-09-12T04:35:25.829Z,1002.81
2022-09-12T04:35:43.516Z,1002.71
2022-09-12T04:36:12.471Z,1002.71
2022-09-12T04:36:35.489Z,1002.91
2022-09-12T04:37:00.361Z,1002.91
2022-09-12T04:37:32.367Z,1002.91
2022-09-12T04:38:04.480Z,1003.11
2022-09-12T04:38:34.618Z,1002.91
2022-09-12T04:38:52.485Z,1002.91
2022-09-12T04:39:25.187Z,1002.91
2022-09-12T04:39:45.079Z,1002.64
2022-09-12T04:40:14.489Z,1002.64
2022-09-12T04:40:34.966Z,1002.81
2022-09-12T04:41:00.903Z,1002.81
2022-09-12T04:41:33.207Z,1002.81
2022-09-12T04:42:04.379Z,1002.64
2022-09-12T04:42:36.749Z,1002.81
2022-09-12T04:43:12.373Z,1002.81
2022-09-12T04:43:34.817Z,1002.81
2022-09-12T04:43:57.207Z,1002.81
2022-09-12T04:44:28.452Z,1002.81
2022-09-12T04:45:00.674Z,1002.64
2022-09-12T04:45:32.879Z,1002.64
2022-09-12T04:46:04.435Z,1002.64
2022-09-12T04:46:34.551Z,1002.81
2022-09-12T04:46:52.611Z,1002.81
2022-09-12T04:47:24.983Z,1002.81
2022-09-12T04:47:42.096Z,1002.64
2022-09-12T04:48:12.396Z,1002.64
2022-09-12T04:48:34.713Z,1002.71
2022-09-12T04:49:01.072Z,1002.71
2022-09-12T04:49:32.550Z,1002.71
2022-09-12T04:50:04.760Z,1002.81
2022-09-12T04:50:36.242Z,1002.64
2022-09-12T04:51:08.516Z,1002.64
2022-09-12T04:51:34.464Z,1002.81
2022-09-12T04:51:56.419Z,1002.81
2022-09-12T04:52:29.142Z,1002.81
2022-09-12T04:53:01.335Z,1002.71
2022-09-12T04:53:32.441Z,1002.71
2022-09-12T04:54:04.433Z,1002.71
2022-09-12T04:54:34.465Z,1002.71
2022-09-12T04:54:54.991Z,1002.71
2022-09-12T04:55:25.469Z,1002.71
2022-09-12T04:55:42.568Z,1002.81
2022-09-12T04:56:12.369Z,1002.81
2022-09-12T04:56:34.555Z,1002.71
2022-09-12T04:57:02.172Z,1002.71
2022-09-12T04:57:32.478Z,1002.71
2022-09-12T04:58:05.379Z,1002.91
2022-09-12T04:58:34.460Z,1002.71
2022-09-12T04:58:52.347Z,1002.71
2022-09-12T04:59:24.946Z,1002.71
2022-09-12T04:59:42.061Z,1002.64
2022-09-12T05:00:12.767Z,1002.64
2022-09-12T05:00:35.351Z,1002.54
2022-09-12T05:01:01.385Z,1002.54
2022-09-12T05:01:32.501Z,1002.54
2022-09-12T05:02:05.996Z,1002.71
2022-09-12T05:02:34.615Z,1002.64
2022-09-12T05:02:52.350Z,1002.64
2022-09-12T05:03:25.235Z,1002.64
2022-09-12T05:03:42.696Z,1002.54
2022-09-12T05:04:12.391Z,1002.54
2022-09-12T05:04:35.381Z,1002.54
2022-09-12T05:05:01.493Z,1002.54
2022-09-12T05:05:33.694Z,1002.54
2022-09-12T05:06:04.495Z,1002.44
2022-09-12T05:06:34.667Z,1002.71
2022-09-12T05:06:53.120Z,1002.71
2022-09-12T05:07:25.445Z,1002.71
2022-09-12T05:07:42.511Z,1002.54
2022-09-12T05:08:13.780Z,1002.54
2022-09-12T05:08:35.463Z,1002.44
2022-09-12T05:09:00.433Z,1002.44
2022-09-12T05:09:33.267Z,1002.44
2022-09-12T05:10:04.638Z,1002.64
2022-09-12T05:10:35.092Z,1002.64
2022-09-12T05:10:53.344Z,1002.64
2022-09-12T05:11:26.585Z,1002.64
2022-09-12T05:12:03.187Z,1002.64
2022-09-12T05:12:13.194Z,1002.64
2022-09-12T05:12:35.241Z,1002.64
2022-09-12T05:13:00.529Z,1002.64
2022-09-12T05:13:34.187Z,1002.64
2022-09-12T05:14:04.453Z,1002.71
2022-09-12T05:14:34.541Z,1002.54
2022-09-12T05:14:53.168Z,1002.54
2022-09-12T05:15:24.598Z,1002.54
2022-09-12T05:15:42.578Z,1002.64
2022-09-12T05:16:15.083Z,1002.64
2022-09-12T05:16:35.032Z,1002.71
2022-09-12T05:17:00.569Z,1002.71
2022-09-12T05:17:32.421Z,1002.71
2022-09-12T05:18:04.413Z,1002.54
2022-09-12T05:18:35.375Z,1002.64
2022-09-12T05:18:52.517Z,1002.64
2022-09-12T05:19:26.053Z,1002.64
2022-09-12T05:19:42.445Z,1002.64
2022-09-12T05:20:12.556Z,1002.64
2022-09-12T05:20:34.665Z,1002.64
2022-09-12T05:21:00.500Z,1002.64
2022-09-12T05:21:35.363Z,1002.64
2022-09-12T05:22:04.456Z,1002.44
2022-09-12T05:22:35.547Z,1002.64
2022-09-12T05:22:52.818Z,1002.64
2022-09-12T05:23:24.478Z,1002.64
2022-09-12T05:23:41.524Z,1002.54
2022-09-12T05:24:13.217Z,1002.54
2022-09-12T05:24:35.449Z,1002.54
2022-09-12T05:25:00.659Z,1002.54
2022-09-12T05:25:33.635Z,1002.54
2022-09-12T05:26:04.440Z,1002.81
2022-09-12T05:26:35.477Z,1002.64
2022-09-12T05:27:08.714Z,1002.64
2022-09-12T05:27:36.529Z,1002.71
2022-09-12T05:27:56.645Z,1002.71
2022-09-12T05:28:28.460Z,1002.71
2022-09-12T05:29:01.258Z,1002.81
2022-09-12T05:29:32.437Z,1002.81
2022-09-12T05:30:05.374Z,1002.81
2022-09-12T05:30:40.621Z,1002.71
2022-09-12T05:31:09.029Z,1002.71
2022-09-12T05:31:34.677Z,1002.71
2022-09-12T05:31:56.627Z,1002.71
2022-09-12T05:32:29.096Z,1002.71
2022-09-12T05:33:01.749Z,1002.81
2022-09-12T05:33:33.528Z,1002.81
2022-09-12T05:34:04.527Z,1002.64
2022-09-12T05:34:35.757Z,1002.71
2022-09-12T05:34:53.021Z,1002.71
2022-09-12T05:35:24.609Z,1002.71
2022-09-12T05:35:42.112Z,1003.01
2022-09-12T05:36:13.197Z,1003.01
2022-09-12T05:36:34.541Z,1002.71
2022-09-12T05:37:06.752Z,1002.71